Aviation Digital Data Service (ADDS)

Output produced by TAFs form (0134 UTC 23 December 2014)
found at http://aviationweather.gov/adds/tafs/
 
KASE 230022Z 2300/2324 33012G22KT P6SM VCSH BKN020 BKN060 WS010/32030KT 
     FM230200 36005KT 3SM -SN BR SCT015 OVC030 
     FM231500 01005KT P6SM VCSH SCT025 BKN050 
     FM231900 33007KT P6SM SCT050